createdAt,value
2019-03-31T00:03:32.978Z,9.50
2019-03-31T00:08:34.381Z,9.50
2019-03-31T00:13:35.867Z,9.50
2019-03-31T00:18:37.561Z,9.50
2019-03-31T00:23:38.995Z,9.50
2019-03-31T00:28:40.707Z,9.60
2019-03-31T00:33:42.081Z,9.50
2019-03-31T00:38:43.533Z,9.60
2019-03-31T00:43:44.900Z,9.50
2019-03-31T00:48:46.273Z,9.50
2019-03-31T00:53:47.566Z,9.50
2019-03-31T00:58:48.905Z,9.50
2019-03-31T01:03:50.667Z,9.50
2019-03-31T01:08:52.272Z,9.50
2019-03-31T01:13:54.645Z,9.40
2019-03-31T01:18:56.190Z,9.50
2019-03-31T01:23:57.785Z,9.50
2019-03-31T01:28:59.871Z,9.50
2019-03-31T01:34:01.839Z,9.50
2019-03-31T01:39:08.168Z,9.50
2019-03-31T01:44:09.808Z,9.40
2019-03-31T01:49:11.505Z,9.50
2019-03-31T01:54:13.205Z,9.50
2019-03-31T01:59:14.744Z,9.50
2019-03-31T02:04:16.294Z,9.60
2019-03-31T02:09:17.635Z,9.60
2019-03-31T02:14:19.120Z,9.60
2019-03-31T02:19:20.787Z,9.60
2019-03-31T02:24:22.321Z,9.60
2019-03-31T02:29:26.557Z,9.60
2019-03-31T02:34:28.035Z,9.60
2019-03-31T02:39:29.590Z,9.60
2019-03-31T02:44:31.019Z,9.60
2019-03-31T02:49:32.489Z,9.60
2019-03-31T02:54:34.193Z,9.60
2019-03-31T02:59:36.738Z,9.60
2019-03-31T03:04:40.001Z,9.60
2019-03-31T03:09:43.538Z,9.60
2019-03-31T03:14:48.770Z,9.60
2019-03-31T03:19:50.405Z,9.60
2019-03-31T03:24:51.943Z,9.60
2019-03-31T03:29:53.593Z,9.60
2019-03-31T03:34:54.933Z,9.50
2019-03-31T03:39:56.336Z,9.50
2019-03-31T03:44:57.812Z,9.50
2019-03-31T03:50:01.128Z,9.50
2019-03-31T03:55:03.075Z,9.50
2019-03-31T04:00:05.033Z,9.50
2019-03-31T04:05:06.892Z,9.40
2019-03-31T04:10:46.035Z,9.40
2019-03-31T04:15:47.761Z,9.40
2019-03-31T04:20:49.102Z,9.40
2019-03-31T04:25:50.539Z,9.30
2019-03-31T04:30:51.953Z,9.30
2019-03-31T04:35:53.500Z,9.20
2019-03-31T04:40:54.917Z,9.20
2019-03-31T04:45:56.438Z,9.10
2019-03-31T04:50:58.015Z,9.10
2019-03-31T04:55:59.451Z,9.00
2019-03-31T05:01:01.006Z,8.90
2019-03-31T05:06:03.058Z,8.70
2019-03-31T05:11:04.624Z,8.70
2019-03-31T05:16:06.273Z,8.60
2019-03-31T05:21:07.685Z,8.40
2019-03-31T05:26:10.445Z,8.40
2019-03-31T05:31:11.792Z,8.30
2019-03-31T05:36:13.218Z,8.20
2019-03-31T05:41:14.626Z,8.20
2019-03-31T05:46:16.017Z,8.10
2019-03-31T05:51:18.771Z,8.10
2019-03-31T05:56:20.440Z,8.00
2019-03-31T06:01:22.310Z,8.00
2019-03-31T06:06:42.161Z,7.90
2019-03-31T06:11:43.709Z,7.90
2019-03-31T06:16:45.264Z,7.90
2019-03-31T06:21:46.778Z,7.90
2019-03-31T06:26:48.355Z,7.90
2019-03-31T06:31:49.793Z,7.90
2019-03-31T06:36:51.308Z,7.80
2019-03-31T06:41:54.148Z,7.80
2019-03-31T06:46:56.035Z,7.80
2019-03-31T06:51:57.669Z,7.80
2019-03-31T06:57:02.165Z,7.80
2019-03-31T07:02:04.765Z,7.80
2019-03-31T07:07:06.242Z,7.80
2019-03-31T07:12:07.677Z,7.90
2019-03-31T07:17:09.978Z,8.00
2019-03-31T07:22:11.558Z,8.10
2019-03-31T07:27:13.103Z,8.20
2019-03-31T07:32:14.910Z,8.20
2019-03-31T07:37:16.373Z,8.30
2019-03-31T07:42:17.756Z,8.30
2019-03-31T07:47:19.253Z,8.30
2019-03-31T07:52:39.055Z,8.30
2019-03-31T07:57:42.086Z,8.40
2019-03-31T08:02:43.662Z,8.50
2019-03-31T08:07:45.302Z,8.40
2019-03-31T08:12:47.150Z,8.40
2019-03-31T08:17:50.601Z,8.50
2019-03-31T08:22:52.070Z,8.60
2019-03-31T08:27:53.843Z,8.70
2019-03-31T08:32:57.081Z,8.80
2019-03-31T08:37:58.381Z,8.90
2019-03-31T08:42:59.802Z,9.00
2019-03-31T08:53:21.208Z,9.40
2019-03-31T08:58:22.798Z,9.50
2019-03-31T09:03:24.473Z,9.70
2019-03-31T09:08:26.044Z,9.90
2019-03-31T09:13:28.378Z,10.10
2019-03-31T09:18:33.278Z,10.30
2019-03-31T09:23:34.881Z,10.60
2019-03-31T09:28:36.292Z,10.80
2019-03-31T09:33:39.632Z,11.10
2019-03-31T09:38:41.446Z,11.30
2019-03-31T09:43:42.857Z,11.50
2019-03-31T09:48:44.157Z,11.70
2019-03-31T10:06:30.471Z,11.90
2019-03-31T10:11:30.026Z,11.90
2019-03-31T10:16:31.348Z,12.00
2019-03-31T10:21:34.256Z,12.30
2019-03-31T10:26:36.102Z,12.50
2019-03-31T10:31:37.678Z,12.70
2019-03-31T10:36:44.695Z,12.90
2019-03-31T10:41:43.522Z,12.90
2019-03-31T10:46:45.004Z,12.80
2019-03-31T10:51:47.666Z,12.60
2019-03-31T10:56:49.097Z,12.20
2019-03-31T11:01:50.581Z,12.00
2019-03-31T11:06:58.990Z,11.90
2019-03-31T11:17:18.719Z,12.00
2019-03-31T11:22:24.824Z,12.00
2019-03-31T11:27:26.391Z,11.90
2019-03-31T11:32:46.311Z,11.90
2019-03-31T11:37:47.621Z,11.80
2019-03-31T11:42:49.214Z,11.90
2019-03-31T11:47:50.728Z,12.10
2019-03-31T11:53:11.856Z,12.30
2019-03-31T11:58:16.403Z,12.50
2019-03-31T12:03:18.654Z,12.40
2019-03-31T12:08:20.145Z,12.30
2019-03-31T12:13:21.681Z,12.20
2019-03-31T12:18:23.341Z,12.00
2019-03-31T12:23:24.913Z,12.00
2019-03-31T12:28:26.597Z,11.90
2019-03-31T12:33:30.279Z,11.80
2019-03-31T12:38:31.760Z,11.80
2019-03-31T12:43:33.658Z,11.90
2019-03-31T12:48:35.316Z,11.80
2019-03-31T12:53:37.387Z,11.90
2019-03-31T12:58:38.823Z,12.00
2019-03-31T13:03:40.291Z,12.00
2019-03-31T13:08:41.933Z,11.90
2019-03-31T13:13:43.545Z,11.90
2019-03-31T13:18:44.996Z,11.90
2019-03-31T13:23:47.277Z,11.80
2019-03-31T13:28:48.958Z,11.80
2019-03-31T13:33:50.310Z,11.80
2019-03-31T13:38:52.319Z,11.90
2019-03-31T13:43:53.942Z,11.90
2019-03-31T13:48:55.832Z,12.00
2019-03-31T13:53:57.230Z,12.00
2019-03-31T13:58:58.817Z,12.10
2019-03-31T14:04:03.316Z,12.10
2019-03-31T14:09:07.739Z,12.10
2019-03-31T14:14:09.535Z,12.10
2019-03-31T14:19:13.302Z,12.10
2019-03-31T14:24:15.213Z,12.20
2019-03-31T14:29:16.728Z,12.30
2019-03-31T14:34:18.214Z,12.30
2019-03-31T14:39:19.680Z,12.30
2019-03-31T14:44:21.255Z,12.30
2019-03-31T14:49:25.710Z,12.40
2019-03-31T14:54:26.575Z,12.50
2019-03-31T14:59:28.188Z,12.40
2019-03-31T15:04:29.615Z,12.40
2019-03-31T15:09:31.061Z,12.40
2019-03-31T15:14:33.739Z,12.30
2019-03-31T15:19:35.237Z,12.40
2019-03-31T15:24:36.795Z,12.40
2019-03-31T15:29:38.445Z,12.40
2019-03-31T15:34:58.534Z,12.40
2019-03-31T15:40:00.079Z,12.40
2019-03-31T15:45:01.853Z,12.40
2019-03-31T15:50:24.708Z,12.40
2019-03-31T15:55:26.053Z,12.40
2019-03-31T16:00:27.974Z,12.40
2019-03-31T16:05:29.839Z,12.40
2019-03-31T16:10:32.984Z,12.30
2019-03-31T16:15:34.597Z,12.30
2019-03-31T16:20:37.938Z,12.20
2019-03-31T16:25:41.675Z,12.20
2019-03-31T16:30:43.344Z,12.20
2019-03-31T16:35:44.829Z,12.10
2019-03-31T16:40:46.521Z,12.10
2019-03-31T16:45:48.038Z,12.10
2019-03-31T16:50:49.408Z,12.10
2019-03-31T16:55:52.327Z,12.00
2019-03-31T17:00:54.432Z,12.00
2019-03-31T17:05:56.334Z,11.90
2019-03-31T17:10:57.890Z,11.90
2019-03-31T17:16:01.535Z,11.80
2019-03-31T17:21:04.639Z,11.70
2019-03-31T17:26:06.359Z,11.70
2019-03-31T17:31:07.966Z,11.60
2019-03-31T17:36:11.421Z,11.50
2019-03-31T17:41:13.145Z,11.40
2019-03-31T17:46:14.936Z,11.30
2019-03-31T17:51:16.959Z,11.20
2019-03-31T17:56:19.107Z,11.20
2019-03-31T18:01:21.215Z,11.10
2019-03-31T18:06:22.816Z,11.00
2019-03-31T18:11:24.597Z,10.90
2019-03-31T18:16:27.259Z,10.80
2019-03-31T18:21:31.552Z,10.70
2019-03-31T18:26:33.289Z,10.50
2019-03-31T18:31:36.502Z,10.40
2019-03-31T18:36:40.199Z,10.30
2019-03-31T18:41:41.870Z,10.30
2019-03-31T18:46:43.439Z,10.10
2019-03-31T18:51:44.896Z,10.10
2019-03-31T18:56:48.232Z,10.00
2019-03-31T19:02:00.674Z,9.90
2019-03-31T19:07:07.102Z,9.80
2019-03-31T19:12:16.470Z,9.70
2019-03-31T19:17:34.734Z,9.60
2019-03-31T19:22:58.641Z,9.50
2019-03-31T19:28:05.029Z,9.40
2019-03-31T19:33:25.139Z,9.30
2019-03-31T19:38:40.509Z,9.20
2019-03-31T19:44:00.569Z,9.20
2019-03-31T19:49:09.845Z,9.10
2019-03-31T19:54:31.355Z,9.00
2019-03-31T19:59:51.573Z,8.90
2019-03-31T20:05:01.163Z,8.80
2019-03-31T20:10:09.382Z,8.70
2019-03-31T20:15:16.145Z,8.70
2019-03-31T20:20:21.787Z,8.60
2019-03-31T20:25:43.469Z,8.60
2019-03-31T20:30:49.941Z,8.50
2019-03-31T20:36:11.457Z,8.40
2019-03-31T20:41:22.950Z,8.40
2019-03-31T20:46:24.619Z,8.30
2019-03-31T20:51:26.348Z,8.20
2019-03-31T20:56:27.912Z,8.20
2019-03-31T21:01:30.927Z,8.10
2019-03-31T21:06:32.335Z,8.00
2019-03-31T21:11:33.870Z,7.90
2019-03-31T21:16:35.377Z,7.90
2019-03-31T21:21:36.721Z,7.80
2019-03-31T21:26:38.208Z,7.70
2019-03-31T21:31:40.116Z,7.60
2019-03-31T21:36:41.566Z,7.50
2019-03-31T21:41:43.252Z,7.50
2019-03-31T21:46:44.640Z,7.40
2019-03-31T21:51:46.128Z,7.30
2019-03-31T21:56:47.857Z,7.30
2019-03-31T22:01:49.487Z,7.20
2019-03-31T22:06:50.935Z,7.10
2019-03-31T22:11:54.879Z,7.00
2019-03-31T22:16:56.403Z,7.00
2019-03-31T22:21:58.140Z,6.90
2019-03-31T22:27:01.872Z,6.80
2019-03-31T22:32:04.437Z,6.70
2019-03-31T22:37:06.121Z,6.70
2019-03-31T22:42:07.586Z,6.60
2019-03-31T22:47:09.102Z,6.50
2019-03-31T22:52:10.423Z,6.40
2019-03-31T22:57:11.987Z,6.40
2019-03-31T23:02:13.446Z,6.30
2019-03-31T23:07:14.884Z,6.20
2019-03-31T23:12:16.373Z,6.10
2019-03-31T23:17:17.816Z,6.10
2019-03-31T23:22:19.276Z,6.00
2019-03-31T23:27:20.706Z,5.90
2019-03-31T23:32:22.006Z,5.90
2019-03-31T23:37:23.745Z,5.80
2019-03-31T23:42:25.178Z,5.70
2019-03-31T23:47:28.261Z,5.60
2019-03-31T23:52:29.846Z,5.50
2019-03-31T23:57:43.517Z,5.50
